createdAt,value
2019-04-21T00:02:05.661Z,6.10
2019-04-21T00:04:48.213Z,8.00
2019-04-21T00:07:25.056Z,11.43
2019-04-21T00:09:58.259Z,13.00
2019-04-21T00:12:22.840Z,10.40
2019-04-21T00:14:46.091Z,9.30
2019-04-21T00:17:12.911Z,9.05
2019-04-21T00:19:40.861Z,7.60
2019-04-21T00:22:23.178Z,6.17
2019-04-21T00:24:56.191Z,5.30
2019-04-21T00:27:29.209Z,4.33
2019-04-21T00:30:01.763Z,4.70
2019-04-21T00:32:25.712Z,5.08
2019-04-21T00:34:48.442Z,4.85
2019-04-21T00:37:24.182Z,4.30
2019-04-21T00:40:03.663Z,4.40
2019-04-21T00:42:34.285Z,4.05
2019-04-21T00:44:59.175Z,4.20
2019-04-21T00:47:36.583Z,4.10
2019-04-21T00:50:08.091Z,4.28
2019-04-21T00:55:24.439Z,4.83
2019-04-21T01:00:18.689Z,4.03
2019-04-21T01:02:52.524Z,4.15
2019-04-21T01:05:16.695Z,4.90
2019-04-21T01:08:00.603Z,6.20
2019-04-21T01:10:06.389Z,5.83
2019-04-21T01:12:53.576Z,6.67
2019-04-21T01:15:26.148Z,8.83
2019-04-21T01:17:48.099Z,9.68
2019-04-21T01:20:12.136Z,8.33
2019-04-21T01:22:26.059Z,7.33
2019-04-21T01:25:04.584Z,5.10
2019-04-21T01:27:45.617Z,4.70
2019-04-21T01:30:16.478Z,4.78
2019-04-21T01:32:50.153Z,3.98
2019-04-21T01:35:17.320Z,3.77
2019-04-21T01:37:50.897Z,2.90
2019-04-21T01:40:26.037Z,3.50
2019-04-21T01:42:45.966Z,3.70
2019-04-21T01:45:15.730Z,3.20
2019-04-21T01:47:49.068Z,2.87
2019-04-21T01:50:07.017Z,3.08
2019-04-21T01:53:11.559Z,3.15
2019-04-21T01:55:24.936Z,2.70
2019-04-21T01:57:54.041Z,3.70
2019-04-21T02:00:23.464Z,4.22
2019-04-21T02:03:10.349Z,4.03
2019-04-21T02:05:40.864Z,3.75
2019-04-21T02:08:02.551Z,3.55
2019-04-21T02:10:34.675Z,2.90
2019-04-21T02:13:03.476Z,3.22
2019-04-21T02:15:37.895Z,3.00
2019-04-21T02:17:59.691Z,3.10
2019-04-21T02:20:28.118Z,2.90
2019-04-21T02:23:26.383Z,3.05
2019-04-21T02:25:39.999Z,3.10
2019-04-21T02:28:11.412Z,3.03
2019-04-21T02:30:56.611Z,2.85
2019-04-21T02:33:25.876Z,3.13
2019-04-21T02:36:15.395Z,2.75
2019-04-21T02:38:28.031Z,3.00
2019-04-21T02:43:21.118Z,3.02
2019-04-21T02:45:47.901Z,3.20
2019-04-21T02:48:19.674Z,2.92
2019-04-21T02:50:47.209Z,2.70
2019-04-21T02:55:51.394Z,3.20
2019-04-21T02:58:29.441Z,2.62
2019-04-21T03:01:50.332Z,3.08
2019-04-21T03:03:50.741Z,2.77
2019-04-21T03:06:27.204Z,2.92
2019-04-21T03:09:05.906Z,3.30
2019-04-21T03:11:22.011Z,3.45
2019-04-21T03:13:57.346Z,4.05
2019-04-21T03:21:22.196Z,4.17
2019-04-21T03:23:58.346Z,3.67
2019-04-21T03:28:54.642Z,3.83
2019-04-21T03:32:05.726Z,4.35
2019-04-21T03:34:27.527Z,4.28
2019-04-21T03:36:47.780Z,5.20
2019-04-21T03:41:31.653Z,5.05
2019-04-21T03:43:59.267Z,4.95
2019-04-21T03:49:04.644Z,5.12
2019-04-21T03:51:32.992Z,4.80
2019-04-21T04:04:20.202Z,4.90
2019-04-21T04:07:05.731Z,5.60
2019-04-21T04:14:34.237Z,5.60
2019-04-21T04:17:04.734Z,5.72
2019-04-21T04:19:34.412Z,5.45
2019-04-21T04:22:09.233Z,5.22
2019-04-21T04:24:33.996Z,4.80
2019-04-21T04:29:24.520Z,5.15
2019-04-21T04:31:55.330Z,5.47
2019-04-21T04:34:49.838Z,5.25
2019-04-21T04:37:05.488Z,5.67
2019-04-21T04:39:42.986Z,6.10
2019-04-21T04:47:20.412Z,5.45
2019-04-21T04:59:49.609Z,5.50
2019-04-21T05:02:27.958Z,5.53
2019-04-21T05:05:09.177Z,5.33
2019-04-21T05:07:27.289Z,4.92
2019-04-21T05:09:57.663Z,6.60
2019-04-21T05:14:55.275Z,5.10
2019-04-21T05:17:30.860Z,5.50
2019-04-21T05:20:01.826Z,5.37
2019-04-21T05:22:22.161Z,6.08
2019-04-21T05:24:44.259Z,5.15
2019-04-21T05:27:29.434Z,5.35
2019-04-21T05:30:10.369Z,5.15
2019-04-21T05:32:45.163Z,5.62
2019-04-21T05:35:14.102Z,6.12
2019-04-21T05:37:56.665Z,5.78
2019-04-21T05:40:20.046Z,5.90
2019-04-21T05:42:49.623Z,5.75
2019-04-21T05:45:37.359Z,5.97
2019-04-21T05:48:12.171Z,5.45
2019-04-21T05:50:32.113Z,5.50
2019-04-21T05:53:00.783Z,5.55
2019-04-21T05:55:56.707Z,5.15
2019-04-21T05:58:21.412Z,5.03
2019-04-21T06:01:47.083Z,5.62
2019-04-21T06:03:09.869Z,5.65
2019-04-21T06:05:44.545Z,7.42
2019-04-21T06:08:12.916Z,5.72
2019-04-21T06:10:43.304Z,7.35
2019-04-21T06:13:12.930Z,5.72
2019-04-21T06:15:44.569Z,7.35
2019-04-21T06:18:13.715Z,6.03
2019-04-21T06:20:40.684Z,5.47
2019-04-21T06:23:13.565Z,6.67
2019-04-21T06:25:54.923Z,6.40
2019-04-21T06:28:12.098Z,6.33
2019-04-21T06:30:48.643Z,5.95
2019-04-21T06:33:16.889Z,5.70
2019-04-21T06:36:21.608Z,6.92
2019-04-21T06:38:54.469Z,5.65
2019-04-21T06:41:21.616Z,5.33
2019-04-21T06:43:49.964Z,5.40
2019-04-21T06:46:21.142Z,5.80
2019-04-21T06:48:49.871Z,5.92
2019-04-21T06:51:16.981Z,5.33
2019-04-21T06:53:52.455Z,5.67
2019-04-21T06:56:15.246Z,5.75
2019-04-21T06:58:47.396Z,5.70
2019-04-21T07:01:19.051Z,5.95
2019-04-21T07:03:54.978Z,4.85
2019-04-21T07:06:12.666Z,5.10
2019-04-21T07:08:56.635Z,5.55
2019-04-21T07:11:14.764Z,5.40
2019-04-21T07:13:49.026Z,5.67
2019-04-21T07:16:18.903Z,5.20
2019-04-21T07:18:58.647Z,5.37
2019-04-21T07:21:25.505Z,5.42
2019-04-21T07:23:53.838Z,5.83
2019-04-21T07:26:19.508Z,4.90
2019-04-21T07:28:56.819Z,5.05
2019-04-21T07:31:17.806Z,11.65
2019-04-21T07:33:57.581Z,5.87
2019-04-21T07:36:35.505Z,5.40
2019-04-21T07:38:49.889Z,5.40
2019-04-21T07:41:15.821Z,5.72
2019-04-21T07:43:55.692Z,5.50
2019-04-21T07:46:25.442Z,5.28
2019-04-21T07:49:01.828Z,5.08
2019-04-21T07:51:42.318Z,4.78
2019-04-21T07:54:15.360Z,6.42
2019-04-21T07:56:26.661Z,5.80
2019-04-21T07:59:30.344Z,6.37
2019-04-21T08:01:37.357Z,5.95
2019-04-21T08:04:33.218Z,5.92
2019-04-21T08:06:43.801Z,5.25
2019-04-21T08:09:12.289Z,5.67
2019-04-21T08:11:38.649Z,5.20
2019-04-21T08:14:13.917Z,5.12
2019-04-21T08:16:44.957Z,5.55
2019-04-21T08:19:15.570Z,5.65
2019-04-21T08:24:17.774Z,6.90
2019-04-21T08:26:43.324Z,4.33
2019-04-21T08:29:29.717Z,5.10
2019-04-21T08:32:00.148Z,4.20
2019-04-21T08:36:46.150Z,5.45
2019-04-21T08:39:13.408Z,4.72
2019-04-21T08:41:43.777Z,4.05
2019-04-21T08:44:20.920Z,4.15
2019-04-21T08:46:49.124Z,4.33
2019-04-21T08:49:15.291Z,4.03
2019-04-21T08:51:57.169Z,4.30
2019-04-21T08:54:23.604Z,4.10
2019-04-21T08:56:59.358Z,4.53
2019-04-21T08:59:36.350Z,4.15
2019-04-21T09:02:14.479Z,4.67
2019-04-21T09:04:41.270Z,4.20
2019-04-21T09:07:21.345Z,4.50
2019-04-21T09:09:59.562Z,4.15
2019-04-21T09:12:15.003Z,4.47
2019-04-21T09:14:45.386Z,4.08
2019-04-21T09:17:10.738Z,4.20
2019-04-21T09:19:52.856Z,4.40
2019-04-21T09:22:12.873Z,3.85
2019-04-21T09:24:46.956Z,3.70
2019-04-21T09:27:18.661Z,4.37
2019-04-21T09:29:36.642Z,3.95
2019-04-21T09:32:00.021Z,4.00
2019-04-21T09:34:35.774Z,4.15
2019-04-21T09:37:16.437Z,3.70
2019-04-21T09:39:31.933Z,3.85
2019-04-21T09:42:02.488Z,4.10
2019-04-21T09:44:36.067Z,4.30
2019-04-21T09:47:03.170Z,3.62
2019-04-21T09:49:33.281Z,4.10
2019-04-21T09:52:02.234Z,4.00
2019-04-21T09:54:35.151Z,4.65
2019-04-21T09:57:05.840Z,4.30
2019-04-21T09:59:37.134Z,3.90
2019-04-21T10:02:09.578Z,4.03
2019-04-21T10:04:33.636Z,3.47
2019-04-21T10:07:02.533Z,3.90
2019-04-21T10:09:31.228Z,3.92
2019-04-21T10:12:00.840Z,3.77
2019-04-21T10:14:30.854Z,3.83
2019-04-21T10:17:19.805Z,3.52
2019-04-21T10:19:48.590Z,3.75
2019-04-21T10:22:17.269Z,4.20
2019-04-21T10:24:46.741Z,3.70
2019-04-21T10:27:16.985Z,4.03
2019-04-21T10:29:47.204Z,4.03
2019-04-21T10:32:18.636Z,3.87
2019-04-21T10:34:47.492Z,4.53
2019-04-21T10:37:16.738Z,3.62
2019-04-21T10:39:45.601Z,3.77
2019-04-21T10:42:15.513Z,3.77
2019-04-21T10:44:45.222Z,3.60
2019-04-21T10:47:14.490Z,4.05
2019-04-21T10:49:46.513Z,4.15
2019-04-21T10:52:15.431Z,3.87
2019-04-21T10:55:08.283Z,3.90
2019-04-21T10:57:19.994Z,4.12
2019-04-21T10:59:51.040Z,3.77
2019-04-21T11:02:39.138Z,3.90
2019-04-21T11:05:09.091Z,4.25
2019-04-21T11:07:55.226Z,7.50
2019-04-21T11:10:16.111Z,5.42
2019-04-21T11:12:47.635Z,5.95
2019-04-21T11:15:15.395Z,9.03
2019-04-21T11:17:45.556Z,6.55
2019-04-21T11:20:17.098Z,6.03
2019-04-21T11:22:47.161Z,8.95
2019-04-21T11:25:16.188Z,7.95
2019-04-21T11:27:47.035Z,7.37
2019-04-21T11:30:15.993Z,5.80
2019-04-21T11:32:46.390Z,6.58
2019-04-21T11:35:15.384Z,6.25
2019-04-21T11:37:46.204Z,6.20
2019-04-21T11:40:18.198Z,7.35
2019-04-21T11:42:46.317Z,6.28
2019-04-21T11:45:34.679Z,8.68
2019-04-21T11:48:16.981Z,6.78
2019-04-21T11:50:46.702Z,6.35
2019-04-21T11:53:16.738Z,6.35
2019-04-21T11:55:48.554Z,7.12
2019-04-21T11:58:16.197Z,6.17
2019-04-21T12:00:47.476Z,5.87
2019-04-21T12:03:17.366Z,6.75
2019-04-21T12:05:47.747Z,6.50
2019-04-21T12:08:26.313Z,6.58
2019-04-21T12:10:47.355Z,6.37
2019-04-21T12:13:18.221Z,6.10
2019-04-21T12:15:47.168Z,8.25
2019-04-21T12:18:16.011Z,6.53
2019-04-21T12:20:45.162Z,6.40
2019-04-21T12:23:14.342Z,6.58
2019-04-21T12:25:49.608Z,5.67
2019-04-21T12:28:19.721Z,6.50
2019-04-21T12:30:51.674Z,6.42
2019-04-21T12:33:22.307Z,6.80
2019-04-21T12:35:51.573Z,6.53
2019-04-21T12:38:33.335Z,5.70
2019-04-21T12:40:50.874Z,5.30
2019-04-21T12:43:20.900Z,5.42
2019-04-21T12:45:49.759Z,4.45
2019-04-21T12:48:20.019Z,4.75
2019-04-21T12:50:50.277Z,4.65
2019-04-21T12:53:19.363Z,4.70
2019-04-21T12:55:49.609Z,4.50
2019-04-21T12:58:19.371Z,4.65
2019-04-21T13:00:49.496Z,4.60
2019-04-21T13:03:21.624Z,4.28
2019-04-21T13:05:49.545Z,4.45
2019-04-21T13:08:19.785Z,5.20
2019-04-21T13:10:51.861Z,4.22
2019-04-21T13:13:21.946Z,4.30
2019-04-21T13:15:51.677Z,4.87
2019-04-21T13:18:21.112Z,4.33
2019-04-21T13:20:51.766Z,5.60
2019-04-21T13:23:20.921Z,4.62
2019-04-21T13:25:50.021Z,4.42
2019-04-21T13:28:18.857Z,4.35
2019-04-21T13:30:48.606Z,4.92
2019-04-21T13:33:18.814Z,5.20
2019-04-21T13:35:48.853Z,4.50
2019-04-21T13:38:26.992Z,4.75
2019-04-21T13:41:10.528Z,5.25
2019-04-21T13:43:27.351Z,5.00
2019-04-21T13:45:57.395Z,5.33
2019-04-21T13:48:26.515Z,4.42
2019-04-21T13:50:55.482Z,4.03
2019-04-21T13:53:25.015Z,3.80
2019-04-21T13:55:54.332Z,5.78
2019-04-21T13:58:24.206Z,4.28
2019-04-21T14:00:55.987Z,4.20
2019-04-21T14:03:26.741Z,4.97
2019-04-21T14:05:56.183Z,4.30
2019-04-21T14:08:29.256Z,3.58
2019-04-21T14:10:57.923Z,4.17
2019-04-21T14:13:26.835Z,3.80
2019-04-21T14:15:57.957Z,3.90
2019-04-21T14:18:26.891Z,3.25
2019-04-21T14:20:55.681Z,4.22
2019-04-21T14:23:32.397Z,5.90
2019-04-21T14:25:55.598Z,3.75
2019-04-21T14:28:24.499Z,3.40
2019-04-21T14:30:54.367Z,3.75
2019-04-21T14:33:23.724Z,4.75
2019-04-21T14:35:52.820Z,3.25
2019-04-21T14:38:22.759Z,4.10
2019-04-21T14:40:54.411Z,3.98
2019-04-21T14:46:04.790Z,4.30
2019-04-21T14:48:47.425Z,4.00
2019-04-21T14:51:25.043Z,3.58
2019-04-21T14:53:56.362Z,3.95
2019-04-21T14:56:27.016Z,3.33
2019-04-21T14:59:00.944Z,3.17
2019-04-21T15:01:31.543Z,3.35
2019-04-21T15:04:03.821Z,5.37
2019-04-21T15:06:33.693Z,3.95
2019-04-21T15:09:03.032Z,4.62
2019-04-21T15:11:31.974Z,3.22
2019-04-21T15:14:02.019Z,3.50
2019-04-21T15:16:31.180Z,3.47
2019-04-21T15:18:59.992Z,3.27
2019-04-21T15:21:29.108Z,4.20
2019-04-21T15:23:58.225Z,3.77
2019-04-21T15:26:28.427Z,3.55
2019-04-21T15:28:57.332Z,3.55
2019-04-21T15:31:30.603Z,4.83
2019-04-21T15:33:57.556Z,3.90
2019-04-21T15:36:27.265Z,4.08
2019-04-21T15:38:56.199Z,4.62
2019-04-21T15:41:26.774Z,5.35
2019-04-21T15:43:56.451Z,5.55
2019-04-21T15:46:29.761Z,6.28
2019-04-21T15:48:59.044Z,7.30
2019-04-21T15:51:29.620Z,6.25
2019-04-21T15:54:00.450Z,6.25
2019-04-21T15:56:40.774Z,8.00
2019-04-21T15:59:14.763Z,7.92
2019-04-21T16:01:57.262Z,6.22
2019-04-21T16:04:25.997Z,7.10
2019-04-21T16:06:57.479Z,5.00
2019-04-21T16:11:55.894Z,4.10
2019-04-21T16:14:24.862Z,4.83
2019-04-21T16:16:53.857Z,4.70
2019-04-21T16:19:23.030Z,4.75
2019-04-21T16:21:52.792Z,5.10
2019-04-21T16:24:23.175Z,5.97
2019-04-21T16:26:52.964Z,6.28
2019-04-21T16:29:22.999Z,6.22
2019-04-21T16:31:53.168Z,6.20
2019-04-21T16:34:22.097Z,6.05
2019-04-21T16:36:51.794Z,5.55
2019-04-21T16:39:23.151Z,4.85
2019-04-21T16:41:52.093Z,5.92
2019-04-21T16:44:25.183Z,6.03
2019-04-21T16:46:54.112Z,5.70
2019-04-21T16:49:22.852Z,6.58
2019-04-21T16:51:53.959Z,6.28
2019-04-21T16:54:24.552Z,7.15
2019-04-21T16:56:54.962Z,6.35
2019-04-21T16:59:28.777Z,8.63
2019-04-21T17:01:58.747Z,9.20
2019-04-21T17:04:28.730Z,8.08
2019-04-21T17:06:58.815Z,11.38
2019-04-21T17:09:28.556Z,14.95
2019-04-21T17:12:01.775Z,15.80
2019-04-21T17:14:46.254Z,15.55
2019-04-21T17:17:25.020Z,15.05
2019-04-21T17:19:36.026Z,14.18
2019-04-21T17:22:01.895Z,13.90
2019-04-21T17:24:30.685Z,14.03
2019-04-21T17:26:59.603Z,15.23
2019-04-21T17:29:28.589Z,18.17
2019-04-21T17:31:57.436Z,16.90
2019-04-21T17:34:32.521Z,13.60
2019-04-21T17:37:01.311Z,12.10
2019-04-21T17:39:31.111Z,10.13
2019-04-21T17:42:11.743Z,9.68
2019-04-21T17:44:30.841Z,8.15
2019-04-21T17:47:20.088Z,6.42
2019-04-21T17:49:39.163Z,7.85
2019-04-21T17:52:16.290Z,7.12
2019-04-21T17:54:50.734Z,7.00
2019-04-21T17:57:36.842Z,6.37
2019-04-21T18:00:25.914Z,6.35
2019-04-21T18:02:41.413Z,6.15
2019-04-21T18:05:19.363Z,6.28
2019-04-21T18:07:43.346Z,6.57
2019-04-21T18:10:07.340Z,6.65
2019-04-21T18:12:36.114Z,6.62
2019-04-21T18:14:59.830Z,7.15
2019-04-21T18:17:22.662Z,7.37
2019-04-21T18:19:53.623Z,7.15
2019-04-21T18:22:31.325Z,7.30
2019-04-21T18:25:04.709Z,6.72
2019-04-21T18:27:29.790Z,7.58
2019-04-21T18:30:02.524Z,6.75
2019-04-21T18:32:36.140Z,7.53
2019-04-21T18:35:13.550Z,8.55
2019-04-21T18:37:59.792Z,8.05
2019-04-21T18:40:27.462Z,7.83
2019-04-21T18:43:23.494Z,7.80
2019-04-21T18:48:19.100Z,7.90
2019-04-21T18:50:50.981Z,6.42
2019-04-21T18:53:27.050Z,7.78
2019-04-21T18:55:47.879Z,7.50
2019-04-21T18:58:15.805Z,7.33
2019-04-21T19:00:45.780Z,7.75
2019-04-21T19:03:20.823Z,8.83
2019-04-21T19:05:52.050Z,10.25
2019-04-21T19:08:30.630Z,8.28
2019-04-21T19:11:08.828Z,8.10
2019-04-21T19:13:44.477Z,8.50
2019-04-21T19:19:09.766Z,9.35
2019-04-21T19:21:07.457Z,9.35
2019-04-21T19:24:06.758Z,8.48
2019-04-21T19:26:25.298Z,8.65
2019-04-21T19:28:47.537Z,8.38
2019-04-21T19:31:15.918Z,8.75
2019-04-21T19:33:36.111Z,8.40
2019-04-21T19:35:57.677Z,9.18
2019-04-21T19:38:35.036Z,8.55
2019-04-21T19:41:15.680Z,8.45
2019-04-21T19:43:49.287Z,8.68
2019-04-21T19:46:13.936Z,9.40
2019-04-21T19:48:55.297Z,9.15
2019-04-21T19:51:15.146Z,9.50
2019-04-21T19:53:44.568Z,8.30
2019-04-21T19:56:03.782Z,8.70
2019-04-21T19:58:38.462Z,9.53
2019-04-21T20:03:32.577Z,9.48
2019-04-21T20:06:11.787Z,8.88
2019-04-21T20:08:44.236Z,9.75
2019-04-21T20:11:19.096Z,9.43
2019-04-21T20:14:03.307Z,10.45
2019-04-21T20:16:23.096Z,10.88
2019-04-21T20:18:42.383Z,12.40
2019-04-21T20:21:06.106Z,12.05
2019-04-21T20:23:38.007Z,12.00
2019-04-21T20:26:08.579Z,12.05
2019-04-21T20:28:48.975Z,12.25
2019-04-21T20:31:23.882Z,14.00
2019-04-21T20:34:02.266Z,19.37
2019-04-21T20:36:31.386Z,16.45
2019-04-21T20:38:48.904Z,24.98
2019-04-21T20:41:22.698Z,16.55
2019-04-21T20:44:00.848Z,17.23
2019-04-21T20:46:29.281Z,16.77
2019-04-21T20:49:00.044Z,15.00
2019-04-21T20:51:35.770Z,15.23
2019-04-21T20:53:59.002Z,17.20
2019-04-21T20:56:26.883Z,15.68
2019-04-21T20:58:59.746Z,15.83
2019-04-21T21:01:35.866Z,13.68
2019-04-21T21:03:57.671Z,14.47
2019-04-21T21:06:33.746Z,15.98
2019-04-21T21:09:09.087Z,14.25
2019-04-21T21:11:41.085Z,12.40
2019-04-21T21:16:46.204Z,11.45
2019-04-21T21:19:18.236Z,9.70
2019-04-21T21:21:40.206Z,10.08
2019-04-21T21:24:10.098Z,10.35
2019-04-21T21:26:44.081Z,9.35
2019-04-21T21:29:18.315Z,10.68
2019-04-21T21:31:48.870Z,9.70
2019-04-21T21:34:25.763Z,9.28
2019-04-21T21:36:51.107Z,10.93
2019-04-21T21:39:18.399Z,7.90
2019-04-21T21:41:40.616Z,8.68
2019-04-21T21:44:10.928Z,8.90
2019-04-21T21:46:50.580Z,7.53
2019-04-21T21:49:22.643Z,7.80
2019-04-21T21:51:49.920Z,8.05
2019-04-21T21:54:07.591Z,7.03
2019-04-21T21:56:36.556Z,6.90
2019-04-21T21:59:14.976Z,7.25
2019-04-21T22:01:44.103Z,8.13
2019-04-21T22:04:15.366Z,7.73
2019-04-21T22:06:47.155Z,6.78
2019-04-21T22:09:12.653Z,7.58
2019-04-21T22:11:42.209Z,8.28
2019-04-21T22:14:17.087Z,7.00
2019-04-21T22:16:49.317Z,7.33
2019-04-21T22:19:34.021Z,7.15
2019-04-21T22:21:59.533Z,6.12
2019-04-21T22:24:29.314Z,6.95
2019-04-21T22:26:43.221Z,6.85
2019-04-21T22:29:12.062Z,6.40
2019-04-21T22:31:41.564Z,6.60
2019-04-21T22:34:14.451Z,6.42
2019-04-21T22:36:52.778Z,6.20
2019-04-21T22:39:29.697Z,6.60
2019-04-21T22:41:46.672Z,7.78
2019-04-21T22:44:20.542Z,8.20
2019-04-21T22:46:58.626Z,7.95
2019-04-21T22:49:21.525Z,8.53
2019-04-21T22:51:51.987Z,8.05
2019-04-21T22:54:26.824Z,8.13
2019-04-21T22:56:59.247Z,7.42
2019-04-21T22:59:24.117Z,7.20
2019-04-21T23:01:52.648Z,6.40
2019-04-21T23:04:26.623Z,7.00
2019-04-21T23:07:00.049Z,6.53
2019-04-21T23:09:23.008Z,6.90
2019-04-21T23:11:55.833Z,6.10
2019-04-21T23:14:23.652Z,5.97
2019-04-21T23:16:54.707Z,6.72
2019-04-21T23:19:35.716Z,6.17
2019-04-21T23:22:12.122Z,5.35
2019-04-21T23:24:45.573Z,6.08
2019-04-21T23:27:11.122Z,6.97
2019-04-21T23:29:52.678Z,5.92
2019-04-21T23:32:08.492Z,5.90
2019-04-21T23:34:30.798Z,6.30
2019-04-21T23:37:03.269Z,5.92
2019-04-21T23:39:30.196Z,5.62
2019-04-21T23:41:57.787Z,5.40
2019-04-21T23:44:28.139Z,5.50
2019-04-21T23:47:02.816Z,6.22
2019-04-21T23:49:39.349Z,6.12
2019-04-21T23:52:03.088Z,5.00
2019-04-21T23:54:29.242Z,5.55
2019-04-21T23:57:01.706Z,5.03
2019-04-21T23:59:31.230Z,5.17
